Time;durP1;ratioP1;P1;durP2;ratioP2;P2;SDS_P1;SDS_P2;PMS_P1;PMS_P2;Temp;Humidity;BMP_temperature;BMP_pressure;BME280_temperature;BME280_humidity;BME280_pressure;Samples;Min_cycle;Max_cycle;Signal;HPM_P1;HPM_P2
2022/01/30 20:08:54;;;;;;;8.65;3.85;;;;;;;1.84;100.00;142722.83;1803646;79;23034;-56
2022/01/30 20:11:21;;;;;;;14.33;4.75;;;;;;;1.79;100.00;142709.14;1762797;80;21085;-55
2022/01/30 20:13:49;;;;;;;9.40;4.05;;;;;;;1.81;100.00;142715.38;1761436;80;21046;-65
2022/01/30 20:16:17;;;;;;;7.58;4.15;;;;;;;1.83;100.00;142719.06;1761648;80;20984;-62
2022/01/30 20:18:46;;;;;;;9.50;4.60;;;;;;;1.79;100.00;142710.38;1742051;81;21142;-64
2022/01/30 20:21:14;;;;;;;9.50;3.80;;;;;;;1.78;100.00;142707.91;1736005;82;21064;-62
2022/01/30 20:23:41;;;;;;;14.40;5.10;;;;;;;1.76;100.00;142701.69;1738894;82;21000;-62
2022/01/30 20:26:14;;;;;;;10.43;5.10;;;;;;;1.73;100.00;142696.69;1737572;82;21498;-64
2022/01/30 20:28:42;;;;;;;10.48;4.12;;;;;;;1.77;100.00;142704.16;1739147;82;21518;-63
2022/01/30 20:31:08;;;;;;;9.03;4.85;;;;;;;1.81;100.00;142715.38;1739316;82;21016;-64
2022/01/30 20:33:36;;;;;;;10.63;4.58;;;;;;;1.83;100.00;142720.36;1737176;82;21171;-60
2022/01/30 20:36:04;;;;;;;11.43;4.35;;;;;;;1.80;100.00;142712.84;1744610;82;21608;-58
2022/01/30 20:38:31;;;;;;;8.03;3.70;;;;;;;1.80;100.00;142712.84;1743135;82;20996;-59
2022/01/30 20:40:58;;;;;;;7.62;3.70;;;;;;;1.77;100.00;142705.39;1735410;82;21063;-58
2022/01/30 20:43:25;;;;;;;8.48;3.35;;;;;;;1.73;100.00;142696.69;1754610;82;21050;-58
2022/01/30 20:45:52;;;;;;;8.18;3.85;;;;;;;1.73;100.00;142695.41;1754531;80;21007;-59
2022/01/30 20:48:19;;;;;;;10.28;3.85;;;;;;;1.69;100.00;142686.72;1751406;80;21036;-60
2022/01/30 20:50:46;;;;;;;6.03;3.27;;;;;;;1.66;100.00;142678.03;1731757;80;21051;-59
2022/01/30 20:53:13;;;;;;;7.75;4.10;;;;;;;1.64;100.00;142673.03;1754530;82;21035;-56
2022/01/30 20:55:40;;;;;;;6.85;3.60;;;;;;;1.63;100.00;142671.80;1730726;82;21000;-57
2022/01/30 20:58:07;;;;;;;9.85;4.08;;;;;;;1.65;100.00;142676.73;1724868;82;21043;-55
2022/01/30 21:00:33;;;;;;;8.40;4.30;;;;;;;1.67;100.00;142681.72;1751214;82;21051;-60
2022/01/30 21:03:00;;;;;;;10.32;4.15;;;;;;;1.69;100.00;142685.47;1752057;82;21502;-58
2022/01/30 21:05:28;;;;;;;8.70;4.03;;;;;;;1.68;100.00;142682.97;1740196;82;21130;-59
2022/01/30 21:07:55;;;;;;;13.38;4.40;;;;;;;1.69;100.00;142685.47;1735091;81;21084;-60
2022/01/30 21:10:27;;;;;;;7.15;3.98;;;;;;;1.68;100.00;142682.97;1725332;82;21012;-57
2022/01/30 21:12:53;;;;;;;9.25;4.10;;;;;;;1.68;100.00;142682.97;1688894;84;21505;-58
2022/01/30 21:15:23;;;;;;;9.98;4.53;;;;;;;1.69;100.00;142685.47;1662792;84;21012;-60
2022/01/30 21:17:50;;;;;;;8.63;4.20;;;;;;;1.65;100.00;142676.73;1675268;83;21501;-58
2022/01/30 21:20:17;;;;;;;9.53;4.03;;;;;;;1.60;100.00;142664.30;1674493;84;21071;-60
2022/01/30 21:22:44;;;;;;;9.53;4.40;;;;;;;1.57;100.00;142655.59;1709608;84;21131;-66
2022/01/30 21:25:11;;;;;;;9.75;4.65;;;;;;;1.58;100.00;142658.06;1710594;83;21006;-54
2022/01/30 21:27:38;;;;;;;10.38;5.25;;;;;;;1.61;100.00;142665.58;1725461;82;21522;-54
2022/01/30 21:30:06;;;;;;;8.45;3.62;;;;;;;1.60;100.00;142663.06;1739916;82;21025;-54
2022/01/30 21:32:33;;;;;;;8.13;4.17;;;;;;;1.59;100.00;142660.58;1740365;82;21045;-56
2022/01/30 21:35:00;;;;;;;11.22;6.42;;;;;;;1.58;100.00;142659.34;1737728;82;21107;-56
2022/01/30 21:37:27;;;;;;;9.45;4.30;;;;;;;1.59;100.00;142660.58;1731758;82;21041;-54
2022/01/30 21:39:54;;;;;;;9.50;5.08;;;;;;;1.57;100.00;142656.83;1711108;82;21036;-54
2022/01/30 21:42:21;;;;;;;10.58;5.30;;;;;;;1.60;100.00;142663.06;1711397;82;21541;-55
2022/01/30 21:44:49;;;;;;;10.98;5.60;;;;;;;1.63;100.00;142670.52;1711134;84;21530;-55
2022/01/30 21:47:16;;;;;;;9.83;5.12;;;;;;;1.64;100.00;142674.27;1737576;81;21029;-56
2022/01/30 21:49:42;;;;;;;10.18;4.92;;;;;;;1.66;100.00;142678.03;1712253;82;21025;-56
2022/01/30 21:52:09;;;;;;;9.35;4.72;;;;;;;1.64;100.00;142674.27;1711304;82;21080;-56
2022/01/30 21:54:36;;;;;;;8.95;4.30;;;;;;;1.63;100.00;142671.80;1711140;84;21044;-54
2022/01/30 21:57:03;;;;;;;7.28;3.87;;;;;;;1.67;100.00;142680.48;1730484;82;21842;-56
2022/01/30 21:59:30;;;;;;;8.55;4.53;;;;;;;1.70;100.00;142689.19;1738363;82;21021;-55
2022/01/30 22:01:57;;;;;;;9.70;4.40;;;;;;;1.70;100.00;142689.19;1711025;82;21080;-55
2022/01/30 22:04:24;;;;;;;8.95;4.37;;;;;;;1.72;100.00;142694.17;1711054;82;21035;-55
2022/01/30 22:06:50;;;;;;;8.90;4.40;;;;;;;1.73;100.00;142695.41;1723449;82;21048;-55
2022/01/30 22:09:17;;;;;;;7.37;3.50;;;;;;;1.75;100.00;142700.41;1752760;80;21514;-54
2022/01/30 22:11:47;;;;;;;6.95;3.70;;;;;;;1.79;100.00;142710.38;1754633;80;21094;-55
2022/01/30 22:16:59;;;;;;;6.53;3.67;;;;;;;1.86;100.00;142726.58;1752581;82;21007;-55
2022/01/30 22:19:25;;;;;;;9.55;3.45;;;;;;;1.83;100.00;142720.36;1754643;81;21582;-56
2022/01/30 22:21:52;;;;;;;6.15;3.33;;;;;;;1.80;100.00;142712.84;1754819;80;21020;-54
2022/01/30 22:24:19;;;;;;;6.12;3.17;;;;;;;1.79;100.00;142710.38;1742685;80;21007;-56
2022/01/30 22:26:47;;;;;;;8.00;2.62;;;;;;;1.84;100.00;142722.83;1735557;82;21059;-55
2022/01/30 22:29:16;;;;;;;6.20;3.25;;;;;;;1.86;100.00;142727.81;1724577;83;20993;-55
2022/01/30 22:31:45;;;;;;;6.60;3.37;;;;;;;1.87;100.00;142730.28;1724804;83;21028;-56
2022/01/30 22:34:13;;;;;;;5.42;3.47;;;;;;;1.87;100.00;142729.05;1734296;82;21501;-55
2022/01/30 22:36:41;;;;;;;7.60;3.70;;;;;;;1.87;100.00;142730.28;1724555;83;21068;-54
2022/01/30 22:39:09;;;;;;;6.28;3.10;;;;;;;1.86;100.00;142727.81;1737645;81;21443;-55
2022/01/30 22:41:37;;;;;;;5.55;3.08;;;;;;;1.85;100.00;142725.30;1727234;82;21036;-56
2022/01/30 22:44:05;;;;;;;5.70;2.95;;;;;;;1.81;100.00;142715.38;1754755;82;20969;-56
2022/01/30 22:46:32;;;;;;;6.30;3.35;;;;;;;1.80;100.00;142712.84;1754816;80;21023;-55
2022/01/30 22:49:00;;;;;;;5.37;2.72;;;;;;;1.78;100.00;142706.63;1746086;81;21031;-55
2022/01/30 22:51:27;;;;;;;5.62;2.80;;;;;;;1.73;100.00;142696.69;1751762;80;21008;-56
2022/01/30 22:53:54;;;;;;;4.37;2.42;;;;;;;1.72;100.00;142692.94;1754438;80;21004;-56
2022/01/30 22:56:21;;;;;;;4.60;2.60;;;;;;;1.72;100.00;142692.94;1727527;82;21032;-54
2022/01/30 22:58:52;;;;;;;4.87;2.92;;;;;;;1.71;100.00;142690.47;1724633;82;21039;-55
2022/01/30 23:01:19;;;;;;;5.60;2.92;;;;;;;1.73;100.00;142695.41;1724888;82;21015;-56
2022/01/30 23:03:45;;;;;;;6.03;2.98;;;;;;;1.74;100.00;142697.92;1724558;83;21008;-56
2022/01/30 23:06:14;;;;;;;5.53;2.98;;;;;;;1.72;100.00;142694.17;1735538;82;21028;-56
2022/01/30 23:08:41;;;;;;;5.58;2.92;;;;;;;1.74;100.00;142697.92;1754281;81;21537;-57
2022/01/30 23:11:08;;;;;;;6.15;3.33;;;;;;;1.74;100.00;142699.16;1754759;80;21047;-56
2022/01/30 23:13:36;;;;;;;6.37;3.70;;;;;;;1.77;100.00;142705.39;1754508;81;21035;-57
2022/01/30 23:16:04;;;;;;;6.20;3.27;;;;;;;1.79;100.00;142709.14;1733926;82;21004;-56
2022/01/30 23:18:31;;;;;;;5.67;3.20;;;;;;;1.78;100.00;142707.91;1745153;82;21004;-57
2022/01/30 23:20:59;;;;;;;7.22;3.52;;;;;;;1.75;100.00;142700.41;1754815;81;21020;-56
2022/01/30 23:23:26;;;;;;;5.67;3.02;;;;;;;1.70;100.00;142687.95;1754406;80;21004;-56
2022/01/30 23:25:53;;;;;;;6.22;3.58;;;;;;;1.65;100.00;142675.50;1736311;82;21000;-59
2022/01/30 23:28:20;;;;;;;6.53;3.05;;;;;;;1.62;100.00;142668.05;1724665;82;21068;-54
2022/01/30 23:30:47;;;;;;;5.35;3.00;;;;;;;1.58;100.00;142658.06;1724635;82;21027;-55
2022/01/30 23:33:14;;;;;;;7.83;3.90;;;;;;;1.59;100.00;142660.58;1724536;82;21707;-55
2022/01/30 23:35:42;;;;;;;5.70;3.10;;;;;;;1.58;100.00;142659.34;1737639;82;21095;-54
2022/01/30 23:38:14;;;;;;;6.42;3.10;;;;;;;1.55;100.00;142651.84;1738840;82;21011;-55
2022/01/30 23:40:46;;;;;;;5.55;2.90;;;;;;;1.56;100.00;142653.12;1724267;82;21136;-56
2022/01/30 23:43:12;;;;;;;5.62;2.72;;;;;;;1.55;100.00;142650.61;1723542;82;21060;-55
2022/01/30 23:45:36;;;;;;;5.40;2.37;;;;;;;1.58;100.00;142658.06;1742053;82;21482;-56
2022/01/30 23:48:03;;;;;;;5.85;3.02;;;;;;;1.58;100.00;142659.34;1732366;82;21012;-56
2022/01/30 23:50:30;;;;;;;5.10;2.72;;;;;;;1.63;100.00;142671.80;1724756;83;21038;-57
2022/01/30 23:52:57;;;;;;;5.58;2.42;;;;;;;1.67;100.00;142680.48;1724539;83;21032;-56
2022/01/30 23:55:25;;;;;;;5.95;2.22;;;;;;;1.67;100.00;142680.48;1740343;82;21050;-56
2022/01/30 23:57:52;;;;;;;3.60;2.10;;;;;;;1.64;100.00;142673.03;1754468;82;21026;-56
